METAR stanice u blizini

 

LHUD - Szeged, Hungary
Ažurirano: 04/07/2019 01:45
NOT Current
Vedro
Vedro
 Pravac vetra S
Vetar: S 7 km/h
Temperatura: 18°C
Tačka rose: 13°C
Vlažnost: 73%
Pritisak: 1019 hPa
Pregled: Vedro
Vidljivost: greater than 10 km
2019/07/03 23:45 LHUD 032345Z 35004KT CAVOK 18/13 Q1019
LHKE - Kecskemet, Hungary
Ažurirano: 14/10/2019 06:15
Shallow patches of, fog, mist, partly cloudy
Shallow patches of, fog, mist, partly cloudy
 Pravac vetra calm
Vetar: Tišina
Temperatura: 8°C
Tačka rose: 8°C
Vlažnost: 100%
Pritisak: 1021 hPa
Pregled: Shallow patches of, fog, mist
Oblaci: Delimično oblačno
Vidljivost: 2 km
2019/10/14 04:15 LHKE 140415Z 00000KT 2000 MIBCFG BR SCT200 08/08 Q1021 TEMPO 1500 BR RMK YLO
LDOS - Osijek, Croatia
Ažurirano: 14/10/2019 06:00
Vedro
Vedro
 Pravac vetra calm
Vetar: Tišina
Temperatura: 9°C
Tačka rose: 8°C
Vlažnost: 94%
Pritisak: 1021 hPa
Pregled: Vedro
Vidljivost: greater than 10 km
2019/10/14 04:00 LDOS 140400Z 00000KT CAVOK 09/08 Q1021
 
LYBE - Beograd / Surcin, Serbia
Ažurirano: 14/10/2019 06:00
Patches of fog, mist, partly cloudy
Patches of fog, mist, partly cloudy
 Pravac vetra JJI
Vetar: JJI 6 km/h
Temperatura: 10°C
Tačka rose: 10°C
Vlažnost: 100%
Pritisak: 1021 hPa
Pregled: Patches of fog, mist
Oblaci: Delimično oblačno
Vidljivost: 2 km
2019/10/14 04:00 LYBE 140400Z 15003KT 2000 0600NE R12/P2000N R30/P2000N BCFG BR NSC 10/10 Q1021 TEMPO 0800 FG
LYVR - Vrsac, Serbia
Ažurirano: 13/10/2019 18:00
NOT Current
Vedro
Vedro
 Pravac vetra I
Vetar: I 2 km/h
Temperatura: 21°C
Tačka rose: 12°C
Vlažnost: 57%
Pritisak: 1020 hPa
Pregled: Vedro
Vidljivost: greater than 10 km
2019/10/13 16:00 LYVR 131600Z 09001KT CAVOK 21/12 Q1020 NOSIG
LRTR - Timisoara, Romania
Ažurirano: 14/10/2019 06:00
Vedro
Vedro
 Pravac vetra IJI
Vetar: IJI 15 km/h
Temperatura: 9°C
Osećaj hladnoće: 7°C
Tačka rose: 7°C
Vlažnost: 87%
Pritisak: 1021 hPa
Pregled: Vedro
Vidljivost: greater than 10 km
2019/10/14 04:00 LRTR 140400Z 11008KT CAVOK 09/07 Q1021